sensor_id;sensor_type;location;lat;lon;timestamp;pressure;altitude;pressure_sealevel;temperature;humidity
41254;BME280;26987;59.928;30.306;2023-02-21T00:02:04;99207.22;;;-8.79;86.35
41254;BME280;26987;59.928;30.306;2023-02-21T00:04:49;99212.78;;;-8.95;86.78
41254;BME280;26987;59.928;30.306;2023-02-21T00:07:34;99210.53;;;-9.00;86.90
41254;BME280;26987;59.928;30.306;2023-02-21T00:10:19;99223.88;;;-9.05;86.97
41254;BME280;26987;59.928;30.306;2023-02-21T00:13:05;99220.09;;;-9.12;87.15
41254;BME280;26987;59.928;30.306;2023-02-21T00:15:50;99219.03;;;-9.21;87.35
41254;BME280;26987;59.928;30.306;2023-02-21T00:18:36;99228.56;;;-9.21;87.10
41254;BME280;26987;59.928;30.306;2023-02-21T00:21:22;99211.06;;;-9.42;87.93
41254;BME280;26987;59.928;30.306;2023-02-21T00:24:11;99221.72;;;-9.22;87.95
41254;BME280;26987;59.928;30.306;2023-02-21T00:26:57;99231.41;;;-9.25;87.51
41254;BME280;26987;59.928;30.306;2023-02-21T00:29:43;99247.84;;;-9.13;87.18
41254;BME280;26987;59.928;30.306;2023-02-21T00:32:30;99242.41;;;-9.21;86.89
41254;BME280;26987;59.928;30.306;2023-02-21T00:35:15;99212.72;;;-9.53;86.95
41254;BME280;26987;59.928;30.306;2023-02-21T00:38:01;99242.00;;;-9.39;87.17
41254;BME280;26987;59.928;30.306;2023-02-21T00:40:46;99257.69;;;-9.52;86.88
41254;BME280;26987;59.928;30.306;2023-02-21T00:43:33;99251.19;;;-9.58;86.67
41254;BME280;26987;59.928;30.306;2023-02-21T00:46:20;99253.25;;;-9.75;87.03
41254;BME280;26987;59.928;30.306;2023-02-21T00:49:05;99254.34;;;-9.90;86.49
41254;BME280;26987;59.928;30.306;2023-02-21T00:51:50;99254.34;;;-10.15;86.78
41254;BME280;26987;59.928;30.306;2023-02-21T00:54:36;99261.31;;;-10.15;87.23
41254;BME280;26987;59.928;30.306;2023-02-21T00:57:22;99266.72;;;-10.31;88.14
41254;BME280;26987;59.928;30.306;2023-02-21T01:00:12;99268.22;;;-10.40;88.11
41254;BME280;26987;59.928;30.306;2023-02-21T01:02:59;99268.72;;;-10.59;87.68
41254;BME280;26987;59.928;30.306;2023-02-21T01:05:44;99269.97;;;-10.65;87.94
41254;BME280;26987;59.928;30.306;2023-02-21T01:08:29;99292.34;;;-10.64;88.23
41254;BME280;26987;59.928;30.306;2023-02-21T01:11:17;99287.59;;;-10.83;87.84
41254;BME280;26987;59.928;30.306;2023-02-21T01:14:03;99281.59;;;-10.97;87.94
41254;BME280;26987;59.928;30.306;2023-02-21T01:16:48;99287.91;;;-11.14;88.58
41254;BME280;26987;59.928;30.306;2023-02-21T01:19:35;99294.63;;;-11.24;88.73
41254;BME280;26987;59.928;30.306;2023-02-21T01:22:20;99294.22;;;-11.31;88.84
41254;BME280;26987;59.928;30.306;2023-02-21T01:25:06;99303.41;;;-11.40;89.15
41254;BME280;26987;59.928;30.306;2023-02-21T01:27:52;99307.13;;;-11.44;89.78
41254;BME280;26987;59.928;30.306;2023-02-21T01:30:38;99312.47;;;-11.47;90.24
41254;BME280;26987;59.928;30.306;2023-02-21T01:33:23;99316.56;;;-11.43;89.09
41254;BME280;26987;59.928;30.306;2023-02-21T01:36:10;99311.28;;;-11.82;89.10
41254;BME280;26987;59.928;30.306;2023-02-21T01:38:55;99323.47;;;-11.84;89.52
41254;BME280;26987;59.928;30.306;2023-02-21T01:41:40;99324.50;;;-11.87;90.16
41254;BME280;26987;59.928;30.306;2023-02-21T01:44:34;99312.88;;;-11.94;90.75
41254;BME280;26987;59.928;30.306;2023-02-21T01:47:19;99333.47;;;-11.93;90.54
41254;BME280;26987;59.928;30.306;2023-02-21T01:50:12;99340.19;;;-11.90;90.98
41254;BME280;26987;59.928;30.306;2023-02-21T01:53:01;99334.47;;;-11.95;90.29
41254;BME280;26987;59.928;30.306;2023-02-21T01:55:47;99347.16;;;-12.05;90.78
41254;BME280;26987;59.928;30.306;2023-02-21T01:58:33;99353.13;;;-12.05;90.85
41254;BME280;26987;59.928;30.306;2023-02-21T02:01:28;99344.13;;;-12.12;90.91
41254;BME280;26987;59.928;30.306;2023-02-21T02:04:16;99355.41;;;-12.13;90.77
41254;BME280;26987;59.928;30.306;2023-02-21T02:07:02;99352.28;;;-12.18;91.01
41254;BME280;26987;59.928;30.306;2023-02-21T02:09:48;99356.53;;;-12.17;91.45
41254;BME280;26987;59.928;30.306;2023-02-21T02:12:55;99364.91;;;-12.13;91.67
41254;BME280;26987;59.928;30.306;2023-02-21T02:15:42;99362.69;;;-12.20;91.21
41254;BME280;26987;59.928;30.306;2023-02-21T02:21:47;99363.00;;;-12.24;91.38
41254;BME280;26987;59.928;30.306;2023-02-21T02:24:52;99383.09;;;-12.15;90.95
41254;BME280;26987;59.928;30.306;2023-02-21T02:36:52;99405.94;;;-12.36;90.43
41254;BME280;26987;59.928;30.306;2023-02-21T02:39:30;99412.75;;;-12.35;90.69
41254;BME280;26987;59.928;30.306;2023-02-21T02:42:04;99402.03;;;-12.44;90.61
41254;BME280;26987;59.928;30.306;2023-02-21T02:44:37;99415.63;;;-12.40;90.47
41254;BME280;26987;59.928;30.306;2023-02-21T02:47:08;99380.16;;;-12.67;90.35
41254;BME280;26987;59.928;30.306;2023-02-21T02:49:40;99427.50;;;-12.52;90.57
41254;BME280;26987;59.928;30.306;2023-02-21T02:52:11;99437.75;;;-12.50;91.04
41254;BME280;26987;59.928;30.306;2023-02-21T02:54:39;99432.75;;;-12.54;90.26
41254;BME280;26987;59.928;30.306;2023-02-21T02:57:09;99439.31;;;-12.62;91.04
41254;BME280;26987;59.928;30.306;2023-02-21T02:59:41;99449.09;;;-12.53;90.85
41254;BME280;26987;59.928;30.306;2023-02-21T03:02:31;99451.50;;;-12.50;90.82
41254;BME280;26987;59.928;30.306;2023-02-21T03:05:33;99469.84;;;-12.55;90.14
41254;BME280;26987;59.928;30.306;2023-02-21T03:08:10;99480.19;;;-12.55;90.33
41254;BME280;26987;59.928;30.306;2023-02-21T03:10:47;99480.97;;;-12.69;90.58
41254;BME280;26987;59.928;30.306;2023-02-21T03:13:27;99486.16;;;-12.69;90.15
41254;BME280;26987;59.928;30.306;2023-02-21T03:16:04;99458.88;;;-12.89;90.06
41254;BME280;26987;59.928;30.306;2023-02-21T03:18:39;99499.09;;;-12.85;90.10
41254;BME280;26987;59.928;30.306;2023-02-21T03:21:12;99494.28;;;-12.91;89.95
41254;BME280;26987;59.928;30.306;2023-02-21T03:23:44;99492.22;;;-13.00;90.16
41254;BME280;26987;59.928;30.306;2023-02-21T03:26:14;99486.50;;;-13.06;90.17
41254;BME280;26987;59.928;30.306;2023-02-21T03:28:47;99492.97;;;-12.98;90.06
41254;BME280;26987;59.928;30.306;2023-02-21T03:31:20;99517.63;;;-13.09;90.22
41254;BME280;26987;59.928;30.306;2023-02-21T03:33:51;99520.56;;;-13.15;90.55
41254;BME280;26987;59.928;30.306;2023-02-21T03:36:19;99518.69;;;-13.13;90.46
41254;BME280;26987;59.928;30.306;2023-02-21T03:38:49;99522.13;;;-13.12;90.36
41254;BME280;26987;59.928;30.306;2023-02-21T03:41:17;99521.72;;;-13.21;90.67
41254;BME280;26987;59.928;30.306;2023-02-21T03:43:45;99543.09;;;-13.19;90.54
41254;BME280;26987;59.928;30.306;2023-02-21T03:46:13;99529.88;;;-13.28;90.56
41254;BME280;26987;59.928;30.306;2023-02-21T03:48:41;99533.44;;;-13.31;90.36
41254;BME280;26987;59.928;30.306;2023-02-21T03:51:24;99535.84;;;-13.44;90.64
41254;BME280;26987;59.928;30.306;2023-02-21T03:53:54;99540.09;;;-13.43;90.36
41254;BME280;26987;59.928;30.306;2023-02-21T03:56:29;99543.50;;;-13.43;90.29
41254;BME280;26987;59.928;30.306;2023-02-21T03:59:05;99559.75;;;-13.57;90.91
41254;BME280;26987;59.928;30.306;2023-02-21T04:01:34;99561.91;;;-13.49;91.20
41254;BME280;26987;59.928;30.306;2023-02-21T04:04:02;99550.59;;;-13.62;90.89
41254;BME280;26987;59.928;30.306;2023-02-21T04:06:30;99579.72;;;-13.60;91.13
41254;BME280;26987;59.928;30.306;2023-02-21T04:09:00;99579.81;;;-13.62;90.91
41254;BME280;26987;59.928;30.306;2023-02-21T04:11:30;99531.56;;;-13.94;91.05
41254;BME280;26987;59.928;30.306;2023-02-21T04:13:59;99595.69;;;-13.53;91.04
41254;BME280;26987;59.928;30.306;2023-02-21T04:16:27;99596.69;;;-13.56;91.15
41254;BME280;26987;59.928;30.306;2023-02-21T04:18:55;99595.03;;;-13.57;91.11
41254;BME280;26987;59.928;30.306;2023-02-21T04:21:24;99613.75;;;-13.53;90.63
41254;BME280;26987;59.928;30.306;2023-02-21T04:23:55;99603.84;;;-13.61;91.26
41254;BME280;26987;59.928;30.306;2023-02-21T04:26:30;99614.84;;;-13.58;91.40
41254;BME280;26987;59.928;30.306;2023-02-21T04:29:01;99591.34;;;-13.69;90.97
41254;BME280;26987;59.928;30.306;2023-02-21T04:31:29;99622.56;;;-13.58;90.36
41254;BME280;26987;59.928;30.306;2023-02-21T04:34:00;99628.03;;;-13.64;90.02
41254;BME280;26987;59.928;30.306;2023-02-21T04:36:28;99637.47;;;-13.63;90.40
41254;BME280;26987;59.928;30.306;2023-02-21T04:38:56;99618.44;;;-13.78;89.72
41254;BME280;26987;59.928;30.306;2023-02-21T04:41:23;99641.50;;;-13.75;90.36
41254;BME280;26987;59.928;30.306;2023-02-21T04:43:54;99643.22;;;-13.75;89.99
41254;BME280;26987;59.928;30.306;2023-02-21T04:46:22;99657.94;;;-13.77;89.62
41254;BME280;26987;59.928;30.306;2023-02-21T04:48:51;99664.00;;;-13.78;89.41
41254;BME280;26987;59.928;30.306;2023-02-21T04:51:22;99671.53;;;-13.91;90.68
41254;BME280;26987;59.928;30.306;2023-02-21T04:53:51;99671.97;;;-13.83;90.26
41254;BME280;26987;59.928;30.306;2023-02-21T04:56:21;99674.94;;;-13.91;90.31
41254;BME280;26987;59.928;30.306;2023-02-21T04:58:50;99671.75;;;-13.96;90.36
41254;BME280;26987;59.928;30.306;2023-02-21T05:01:20;99669.25;;;-13.98;90.68
41254;BME280;26987;59.928;30.306;2023-02-21T05:03:48;99685.16;;;-13.89;90.95
41254;BME280;26987;59.928;30.306;2023-02-21T05:06:17;99683.66;;;-13.94;90.17
41254;BME280;26987;59.928;30.306;2023-02-21T05:08:45;99694.19;;;-13.98;89.94
41254;BME280;26987;59.928;30.306;2023-02-21T05:11:13;99702.91;;;-14.01;90.65
41254;BME280;26987;59.928;30.306;2023-02-21T05:13:41;99716.78;;;-13.86;90.40
41254;BME280;26987;59.928;30.306;2023-02-21T05:16:09;99683.09;;;-14.18;90.19
41254;BME280;26987;59.928;30.306;2023-02-21T05:18:40;99721.63;;;-13.97;90.27
41254;BME280;26987;59.928;30.306;2023-02-21T05:21:08;99717.53;;;-14.01;89.85
41254;BME280;26987;59.928;30.306;2023-02-21T05:23:38;99733.22;;;-14.06;90.22
41254;BME280;26987;59.928;30.306;2023-02-21T05:26:08;99743.44;;;-14.04;90.16
41254;BME280;26987;59.928;30.306;2023-02-21T05:28:37;99725.25;;;-14.19;90.03
41254;BME280;26987;59.928;30.306;2023-02-21T05:31:05;99750.03;;;-13.99;89.65
41254;BME280;26987;59.928;30.306;2023-02-21T05:33:33;99767.56;;;-14.06;89.06
41254;BME280;26987;59.928;30.306;2023-02-21T05:36:03;99759.97;;;-14.09;88.94
41254;BME280;26987;59.928;30.306;2023-02-21T05:38:31;99756.50;;;-14.27;90.14
41254;BME280;26987;59.928;30.306;2023-02-21T05:40:59;99766.41;;;-14.17;89.69
41254;BME280;26987;59.928;30.306;2023-02-21T05:43:27;99762.22;;;-14.20;89.76
41254;BME280;26987;59.928;30.306;2023-02-21T05:45:58;99778.38;;;-14.16;90.15
41254;BME280;26987;59.928;30.306;2023-02-21T05:48:26;99771.63;;;-14.19;89.03
41254;BME280;26987;59.928;30.306;2023-02-21T05:50:54;99790.06;;;-14.09;88.91
41254;BME280;26987;59.928;30.306;2023-02-21T05:53:24;99780.28;;;-14.20;88.43
41254;BME280;26987;59.928;30.306;2023-02-21T05:55:52;99748.94;;;-14.49;88.97
41254;BME280;26987;59.928;30.306;2023-02-21T05:58:19;99802.25;;;-14.13;89.01
41254;BME280;26987;59.928;30.306;2023-02-21T06:00:47;99815.00;;;-14.10;89.44
41254;BME280;26987;59.928;30.306;2023-02-21T06:03:15;99795.41;;;-14.14;89.51
41254;BME280;26987;59.928;30.306;2023-02-21T06:05:43;99818.53;;;-13.93;89.38
41254;BME280;26987;59.928;30.306;2023-02-21T06:08:11;99819.44;;;-13.94;88.14
41254;BME280;26987;59.928;30.306;2023-02-21T06:10:41;99827.88;;;-13.90;88.30
41254;BME280;26987;59.928;30.306;2023-02-21T06:13:08;99832.97;;;-13.89;88.01
41254;BME280;26987;59.928;30.306;2023-02-21T06:15:36;99839.19;;;-13.75;87.44
41254;BME280;26987;59.928;30.306;2023-02-21T06:18:04;99829.50;;;-13.35;86.59
41254;BME280;26987;59.928;30.306;2023-02-21T06:20:33;99825.94;;;-13.14;85.15
41254;BME280;26987;59.928;30.306;2023-02-21T06:23:00;99820.53;;;-12.92;84.84
41254;BME280;26987;59.928;30.306;2023-02-21T06:25:28;99853.53;;;-12.63;83.48
41254;BME280;26987;59.928;30.306;2023-02-21T06:27:58;99854.34;;;-12.63;83.12
41254;BME280;26987;59.928;30.306;2023-02-21T06:30:25;99834.16;;;-12.72;82.70
41254;BME280;26987;59.928;30.306;2023-02-21T06:32:53;99858.75;;;-12.47;81.39
41254;BME280;26987;59.928;30.306;2023-02-21T06:35:21;99867.38;;;-12.48;81.38
41254;BME280;26987;59.928;30.306;2023-02-21T06:37:49;99868.63;;;-12.56;81.58
41254;BME280;26987;59.928;30.306;2023-02-21T06:40:17;99880.81;;;-12.58;81.51
41254;BME280;26987;59.928;30.306;2023-02-21T06:42:45;99887.97;;;-12.47;81.58
41254;BME280;26987;59.928;30.306;2023-02-21T06:45:14;99877.53;;;-12.61;80.95
41254;BME280;26987;59.928;30.306;2023-02-21T06:47:42;99892.47;;;-12.50;81.37
41254;BME280;26987;59.928;30.306;2023-02-21T06:50:10;99893.69;;;-12.40;81.01
41254;BME280;26987;59.928;30.306;2023-02-21T06:52:38;99912.28;;;-12.33;81.76
41254;BME280;26987;59.928;30.306;2023-02-21T06:55:06;99903.25;;;-12.42;81.15
41254;BME280;26987;59.928;30.306;2023-02-21T06:57:34;99914.44;;;-12.42;80.38
41254;BME280;26987;59.928;30.306;2023-02-21T07:00:03;99865.03;;;-12.87;80.57
41254;BME280;26987;59.928;30.306;2023-02-21T07:02:32;99911.56;;;-12.71;81.59
41254;BME280;26987;59.928;30.306;2023-02-21T07:05:00;99931.78;;;-12.61;81.55
41254;BME280;26987;59.928;30.306;2023-02-21T07:07:28;99932.16;;;-12.69;80.71
41254;BME280;26987;59.928;30.306;2023-02-21T07:09:56;99918.97;;;-12.81;81.52
41254;BME280;26987;59.928;30.306;2023-02-21T07:12:23;99940.59;;;-12.65;81.48
41254;BME280;26987;59.928;30.306;2023-02-21T07:14:53;99944.03;;;-12.65;81.70
41254;BME280;26987;59.928;30.306;2023-02-21T07:17:21;99945.38;;;-12.58;81.43
41254;BME280;26987;59.928;30.306;2023-02-21T07:19:50;99944.19;;;-12.68;81.36
41254;BME280;26987;59.928;30.306;2023-02-21T07:22:18;99901.56;;;-12.95;81.60
41254;BME280;26987;59.928;30.306;2023-02-21T07:24:51;99966.56;;;-12.51;81.93
41254;BME280;26987;59.928;30.306;2023-02-21T07:27:20;99968.47;;;-12.37;80.58
41254;BME280;26987;59.928;30.306;2023-02-21T07:29:49;99943.63;;;-12.57;80.58
41254;BME280;26987;59.928;30.306;2023-02-21T07:32:17;99980.47;;;-12.36;80.08
41254;BME280;26987;59.928;30.306;2023-02-21T07:34:45;99992.78;;;-12.23;79.91
41254;BME280;26987;59.928;30.306;2023-02-21T07:37:14;99988.06;;;-12.33;79.86
41254;BME280;26987;59.928;30.306;2023-02-21T07:39:42;99997.50;;;-12.32;79.32
41254;BME280;26987;59.928;30.306;2023-02-21T07:42:10;100006.25;;;-12.34;80.01
41254;BME280;26987;59.928;30.306;2023-02-21T07:44:42;100007.38;;;-12.40;79.56
41254;BME280;26987;59.928;30.306;2023-02-21T07:47:11;100006.31;;;-12.36;79.59
41254;BME280;26987;59.928;30.306;2023-02-21T07:49:39;100018.56;;;-12.22;79.58
41254;BME280;26987;59.928;30.306;2023-02-21T07:52:07;100020.91;;;-12.17;79.70
41254;BME280;26987;59.928;30.306;2023-02-21T07:54:36;100011.47;;;-12.18;78.83
41254;BME280;26987;59.928;30.306;2023-02-21T07:57:04;100031.03;;;-12.12;78.77
41254;BME280;26987;59.928;30.306;2023-02-21T07:59:32;99996.75;;;-12.34;78.33
41254;BME280;26987;59.928;30.306;2023-02-21T08:02:00;100035.19;;;-12.10;78.40
41254;BME280;26987;59.928;30.306;2023-02-21T08:04:28;100038.84;;;-12.14;78.63
41254;BME280;26987;59.928;30.306;2023-02-21T08:06:58;99970.06;;;-12.52;78.35
41254;BME280;26987;59.928;30.306;2023-02-21T08:09:26;100030.19;;;-12.13;78.67
41254;BME280;26987;59.928;30.306;2023-02-21T08:11:56;100047.19;;;-12.09;79.06
41254;BME280;26987;59.928;30.306;2023-02-21T08:14:24;100048.91;;;-12.08;79.28
41254;BME280;26987;59.928;30.306;2023-02-21T08:16:52;100056.75;;;-11.93;78.90
41254;BME280;26987;59.928;30.306;2023-02-21T08:19:20;100055.34;;;-11.83;79.29
41254;BME280;26987;59.928;30.306;2023-02-21T08:21:48;100057.63;;;-11.76;79.49
41254;BME280;26987;59.928;30.306;2023-02-21T08:24:17;100060.31;;;-11.62;78.67
41254;BME280;26987;59.928;30.306;2023-02-21T08:26:46;100089.16;;;-11.52;78.63
41254;BME280;26987;59.928;30.306;2023-02-21T08:29:15;100084.81;;;-11.52;78.18
41254;BME280;26987;59.928;30.306;2023-02-21T08:31:43;100081.09;;;-11.63;77.90
41254;BME280;26987;59.928;30.306;2023-02-21T08:34:11;100099.09;;;-11.44;77.37
41254;BME280;26987;59.928;30.306;2023-02-21T08:36:41;100108.72;;;-11.46;77.80
41254;BME280;26987;59.928;30.306;2023-02-21T08:39:09;100095.84;;;-11.48;77.53
41254;BME280;26987;59.928;30.306;2023-02-21T08:41:39;100113.56;;;-11.40;78.13
41254;BME280;26987;59.928;30.306;2023-02-21T08:44:08;100096.03;;;-11.35;77.70
41254;BME280;26987;59.928;30.306;2023-02-21T08:46:37;100116.75;;;-11.19;77.41
41254;BME280;26987;59.928;30.306;2023-02-21T08:49:06;100122.63;;;-11.15;77.21
41254;BME280;26987;59.928;30.306;2023-02-21T08:51:34;100130.81;;;-11.07;76.86
41254;BME280;26987;59.928;30.306;2023-02-21T08:54:02;100115.56;;;-11.29;77.52
41254;BME280;26987;59.928;30.306;2023-02-21T08:56:30;100134.41;;;-11.09;77.87
41254;BME280;26987;59.928;30.306;2023-02-21T08:58:59;100139.25;;;-10.87;77.59
41254;BME280;26987;59.928;30.306;2023-02-21T09:01:31;100139.78;;;-10.96;77.02
41254;BME280;26987;59.928;30.306;2023-02-21T09:04:01;100146.53;;;-10.94;76.65
41254;BME280;26987;59.928;30.306;2023-02-21T09:06:30;100143.19;;;-10.96;76.37
41254;BME280;26987;59.928;30.306;2023-02-21T09:08:58;100154.47;;;-10.97;76.06
41254;BME280;26987;59.928;30.306;2023-02-21T09:11:26;100149.53;;;-11.02;76.19
41254;BME280;26987;59.928;30.306;2023-02-21T09:13:53;100149.38;;;-10.98;76.40
41254;BME280;26987;59.928;30.306;2023-02-21T09:16:21;100162.00;;;-10.92;75.73
41254;BME280;26987;59.928;30.306;2023-02-21T09:18:54;100147.34;;;-10.93;76.27
41254;BME280;26987;59.928;30.306;2023-02-21T09:21:24;100159.00;;;-10.84;75.88
41254;BME280;26987;59.928;30.306;2023-02-21T09:23:53;100052.41;;;-11.43;76.11
41254;BME280;26987;59.928;30.306;2023-02-21T09:26:21;100167.88;;;-10.72;75.81
41254;BME280;26987;59.928;30.306;2023-02-21T09:28:50;100160.09;;;-10.72;75.53
41254;BME280;26987;59.928;30.306;2023-02-21T09:31:19;100164.94;;;-10.66;74.85
41254;BME280;26987;59.928;30.306;2023-02-21T09:33:47;100163.75;;;-10.77;75.45
41254;BME280;26987;59.928;30.306;2023-02-21T09:36:15;100165.94;;;-10.69;75.33
41254;BME280;26987;59.928;30.306;2023-02-21T09:38:45;100160.19;;;-10.74;74.49
41254;BME280;26987;59.928;30.306;2023-02-21T09:41:13;100172.72;;;-10.66;74.70
41254;BME280;26987;59.928;30.306;2023-02-21T09:43:44;100182.16;;;-10.65;75.39
41254;BME280;26987;59.928;30.306;2023-02-21T09:46:16;100174.31;;;-10.64;75.05
41254;BME280;26987;59.928;30.306;2023-02-21T09:48:46;100184.50;;;-10.60;74.79
41254;BME280;26987;59.928;30.306;2023-02-21T09:51:15;100195.19;;;-10.51;74.77
41254;BME280;26987;59.928;30.306;2023-02-21T09:53:46;100193.81;;;-10.42;74.45
41254;BME280;26987;59.928;30.306;2023-02-21T09:56:20;100188.91;;;-10.46;74.95
41254;BME280;26987;59.928;30.306;2023-02-21T09:58:54;100192.31;;;-10.30;74.40
41254;BME280;26987;59.928;30.306;2023-02-21T10:01:30;100192.00;;;-10.40;74.48
41254;BME280;26987;59.928;30.306;2023-02-21T10:04:07;100192.91;;;-10.24;73.01
41254;BME280;26987;59.928;30.306;2023-02-21T10:06:46;100188.81;;;-10.29;73.91
41254;BME280;26987;59.928;30.306;2023-02-21T10:09:24;100170.41;;;-10.40;73.56
41254;BME280;26987;59.928;30.306;2023-02-21T10:12:01;100175.56;;;-10.24;73.41
41254;BME280;26987;59.928;30.306;2023-02-21T10:14:40;100188.44;;;-10.22;72.67
41254;BME280;26987;59.928;30.306;2023-02-21T10:17:14;100209.72;;;-10.16;73.45
41254;BME280;26987;59.928;30.306;2023-02-21T10:19:48;100206.59;;;-10.06;73.86
41254;BME280;26987;59.928;30.306;2023-02-21T10:22:19;100105.69;;;-10.72;73.19
41254;BME280;26987;59.928;30.306;2023-02-21T10:24:49;100219.88;;;-9.96;72.99
41254;BME280;26987;59.928;30.306;2023-02-21T10:27:19;100217.63;;;-10.03;72.55
41254;BME280;26987;59.928;30.306;2023-02-21T10:29:51;100226.84;;;-9.97;72.25
41254;BME280;26987;59.928;30.306;2023-02-21T10:32:21;100227.09;;;-10.02;72.33
41254;BME280;26987;59.928;30.306;2023-02-21T10:34:50;100227.09;;;-10.02;72.33
41254;BME280;26987;59.928;30.306;2023-02-21T10:37:27;100229.44;;;-9.97;72.49
41254;BME280;26987;59.928;30.306;2023-02-21T10:40:03;100237.78;;;-9.92;72.83
41254;BME280;26987;59.928;30.306;2023-02-21T10:42:36;100243.66;;;-9.88;72.21
41254;BME280;26987;59.928;30.306;2023-02-21T10:45:06;100241.88;;;-9.88;72.16
41254;BME280;26987;59.928;30.306;2023-02-21T10:47:47;100232.50;;;-9.90;73.10
41254;BME280;26987;59.928;30.306;2023-02-21T10:50:35;100245.09;;;-9.68;72.95
41254;BME280;26987;59.928;30.306;2023-02-21T10:53:03;100200.78;;;-9.95;71.88
41254;BME280;26987;59.928;30.306;2023-02-21T10:55:33;100262.34;;;-9.67;71.66
41254;BME280;26987;59.928;30.306;2023-02-21T10:58:06;100267.72;;;-9.70;70.73
41254;BME280;26987;59.928;30.306;2023-02-21T11:00:36;100246.13;;;-9.70;70.70
41254;BME280;26987;59.928;30.306;2023-02-21T11:03:06;100265.22;;;-9.71;70.56
41254;BME280;26987;59.928;30.306;2023-02-21T11:05:39;100272.59;;;-9.80;71.18
41254;BME280;26987;59.928;30.306;2023-02-21T11:08:08;100264.03;;;-9.82;70.68
41254;BME280;26987;59.928;30.306;2023-02-21T11:10:40;100270.34;;;-9.86;71.08
41254;BME280;26987;59.928;30.306;2023-02-21T11:13:14;100271.31;;;-9.72;71.30
41254;BME280;26987;59.928;30.306;2023-02-21T11:15:43;100274.75;;;-9.72;71.71
41254;BME280;26987;59.928;30.306;2023-02-21T11:18:15;100238.94;;;-9.81;71.13
41254;BME280;26987;59.928;30.306;2023-02-21T11:20:44;100281.34;;;-9.66;70.74
41254;BME280;26987;59.928;30.306;2023-02-21T11:23:20;100267.53;;;-9.67;70.62
41254;BME280;26987;59.928;30.306;2023-02-21T11:25:54;100290.47;;;-9.59;70.40
41254;BME280;26987;59.928;30.306;2023-02-21T11:28:24;100282.53;;;-9.72;70.47
41254;BME280;26987;59.928;30.306;2023-02-21T11:31:05;100304.72;;;-9.66;71.01
41254;BME280;26987;59.928;30.306;2023-02-21T11:33:37;100291.34;;;-9.75;70.53
41254;BME280;26987;59.928;30.306;2023-02-21T11:36:09;100303.63;;;-9.62;71.64
41254;BME280;26987;59.928;30.306;2023-02-21T11:38:40;100312.38;;;-9.48;71.41
41254;BME280;26987;59.928;30.306;2023-02-21T11:41:20;100279.91;;;-9.56;70.56
41254;BME280;26987;59.928;30.306;2023-02-21T11:43:50;100309.22;;;-9.54;70.71
41254;BME280;26987;59.928;30.306;2023-02-21T11:46:34;100308.13;;;-9.50;70.69
41254;BME280;26987;59.928;30.306;2023-02-21T11:49:11;100318.16;;;-9.43;71.81
41254;BME280;26987;59.928;30.306;2023-02-21T11:51:48;100318.72;;;-9.38;71.91
41254;BME280;26987;59.928;30.306;2023-02-21T11:54:18;100327.59;;;-9.26;71.46
41254;BME280;26987;59.928;30.306;2023-02-21T11:56:59;100338.84;;;-9.11;70.90
41254;BME280;26987;59.928;30.306;2023-02-21T11:59:37;100348.97;;;-9.06;71.35
41254;BME280;26987;59.928;30.306;2023-02-21T12:02:38;100351.41;;;-9.03;70.66
41254;BME280;26987;59.928;30.306;2023-02-21T12:05:29;100348.25;;;-9.08;70.77
41254;BME280;26987;59.928;30.306;2023-02-21T12:08:13;100351.47;;;-9.05;70.64
41254;BME280;26987;59.928;30.306;2023-02-21T12:10:45;100345.28;;;-9.02;71.41
41254;BME280;26987;59.928;30.306;2023-02-21T12:13:27;100351.47;;;-9.05;70.81
41254;BME280;26987;59.928;30.306;2023-02-21T12:16:07;100349.47;;;-9.00;70.82
41254;BME280;26987;59.928;30.306;2023-02-21T12:18:56;100371.31;;;-8.88;71.83
41254;BME280;26987;59.928;30.306;2023-02-21T12:21:39;100364.63;;;-8.92;70.32
41254;BME280;26987;59.928;30.306;2023-02-21T12:24:26;100360.03;;;-9.03;71.12
41254;BME280;26987;59.928;30.306;2023-02-21T12:27:05;100347.84;;;-9.17;70.86
41254;BME280;26987;59.928;30.306;2023-02-21T12:29:49;100380.81;;;-9.03;71.56
41254;BME280;26987;59.928;30.306;2023-02-21T12:32:32;100382.41;;;-9.00;71.32
41254;BME280;26987;59.928;30.306;2023-02-21T12:35:27;100383.97;;;-8.97;71.65
41254;BME280;26987;59.928;30.306;2023-02-21T12:38:05;100379.00;;;-9.01;71.93
41254;BME280;26987;59.928;30.306;2023-02-21T12:40:41;100389.38;;;-9.01;71.13
41254;BME280;26987;59.928;30.306;2023-02-21T12:43:26;100406.47;;;-8.96;71.51
41254;BME280;26987;59.928;30.306;2023-02-21T12:46:13;100396.16;;;-8.98;70.80
41254;BME280;26987;59.928;30.306;2023-02-21T12:48:48;100396.84;;;-9.10;72.08
41254;BME280;26987;59.928;30.306;2023-02-21T12:51:25;100406.47;;;-8.96;72.08
41254;BME280;26987;59.928;30.306;2023-02-21T12:53:57;100414.09;;;-8.93;72.04
41254;BME280;26987;59.928;30.306;2023-02-21T12:56:30;100436.13;;;-8.84;72.38
41254;BME280;26987;59.928;30.306;2023-02-21T12:59:02;100436.38;;;-8.89;72.29
41254;BME280;26987;59.928;30.306;2023-02-21T13:01:34;100445.03;;;-8.89;72.56
41254;BME280;26987;59.928;30.306;2023-02-21T13:04:12;100440.63;;;-8.88;72.55
41254;BME280;26987;59.928;30.306;2023-02-21T13:06:47;100442.84;;;-8.96;73.40
41254;BME280;26987;59.928;30.306;2023-02-21T13:09:23;100448.88;;;-8.96;73.53
41254;BME280;26987;59.928;30.306;2023-02-21T13:11:58;100457.69;;;-8.99;73.49
41254;BME280;26987;59.928;30.306;2023-02-21T13:14:31;100465.31;;;-8.95;73.59
41254;BME280;26987;59.928;30.306;2023-02-21T13:17:03;100467.25;;;-8.99;73.46
41254;BME280;26987;59.928;30.306;2023-02-21T13:19:36;100475.72;;;-9.12;74.04
41254;BME280;26987;59.928;30.306;2023-02-21T13:26:04;100473.78;;;-9.08;74.74
41254;BME280;26987;59.928;30.306;2023-02-21T13:28:38;100482.34;;;-9.06;74.10
41254;BME280;26987;59.928;30.306;2023-02-21T13:31:17;100494.66;;;-9.09;73.98